| Date | Time | Temp. (oF) | Dew Point (oF) | Rel. Hum. (%) | Press. (in.) | Wind Dir. | Wind Speed (mph) | Hourly Rainfall (in.) |
|
|---|---|---|---|---|---|---|---|---|---|
| 1 | 06/10 | 00:00 | 64 | 63 | 100 | 29.81 | NNE | 0 | 0.00 |
| 2 | 06/09 | 23:00 | 64 | 63 | 100 | 29.81 | NNE | 0 | 0.02 |
| 3 | 06/09 | 22:00 | 64 | 63 | 100 | 29.81 | NW | 0 | 0.03 |
| 4 | 06/09 | 21:00 | 64 | 63 | 100 | 29.80 | SW | 1 | 0.07 |
| 5 | 06/09 | 20:00 | 64 | 63 | 100 | 29.81 | S | 0 | 0.06 |
| 6 | 06/09 | 19:00 | 64 | 63 | 99 | 29.82 | SSW | 2 | 0.02 |
| 7 | 06/09 | 18:00 | 63 | 62 | 98 | 29.84 | SW | 0 | 0.01 |
| 8 | 06/09 | 17:00 | 62 | 61 | 98 | 29.87 | S | 4 | 0.03 |
| 9 | 06/09 | 16:00 | 62 | 61 | 97 | 29.89 | S | 5 | 0.04 |
| 10 | 06/09 | 15:00 | 61 | 59 | 96 | 29.92 | SSW | 2 | 0.08 |
| 11 | 06/09 | 14:00 | 60 | 58 | 94 | 29.96 | SSW | 4 | 0.07 |
| 12 | 06/09 | 13:00 | 61 | 57 | 89 | 29.99 | S | 4 | 0.07 |
| 13 | 06/09 | 12:00 | 62 | 56 | 83 | 30.00 | S | 6 | 0.00 |
| 14 | 06/09 | 11:00 | 65 | 56 | 73 | 30.04 | SW | 5 | 0.00 |
| 15 | 06/09 | 10:00 | 64 | 53 | 70 | 30.05 | SSW | 0 | 0.00 |
| 16 | 06/09 | 09:00 | 63 | 51 | 66 | 30.08 | S | 0 | 0.00 |
| 17 | 06/09 | 08:00 | 63 | 52 | 68 | 30.10 | SSW | 0 | 0.00 |
| 18 | 06/09 | 07:00 | 60 | 52 | 75 | 30.11 | ESE | 4 | 0.00 |
| 19 | 06/09 | 06:00 | 57 | 51 | 82 | 30.11 | ENE | 4 | 0.00 |
| 20 | 06/09 | 05:00 | 58 | 53 | 84 | 30.13 | NNE | 2 | 0.00 |
| 21 | 06/09 | 04:00 | 57 | 53 | 89 | 30.12 | NNW | 0 | 0.00 |
| 22 | 06/09 | 03:00 | 56 | 53 | 91 | 30.10 | E | 0 | 0.00 |
| 23 | 06/09 | 02:00 | 55 | 51 | 89 | 30.12 | E | 0 | 0.00 |
| 24 | 06/09 | 01:00 | 55 | 50 | 84 | 30.13 | NE | 0 | 0.00 |